sensor_id;sensor_type;location;lat;lon;timestamp;P1;durP1;ratioP1;P2;durP2;ratioP2
5403;SDS011;2725;51.054;6.948;2022-07-24T00:00:03;3.7;;;3.1;;
5403;SDS011;2725;51.054;6.948;2022-07-24T00:05:02;3.3;;;3.0;;
5403;SDS011;2725;51.054;6.948;2022-07-24T00:10:03;3.3;;;3.0;;
5403;SDS011;2725;51.054;6.948;2022-07-24T00:15:01;3.3;;;3.0;;
5403;SDS011;2725;51.054;6.948;2022-07-24T00:20:01;3.3;;;3.0;;
5403;SDS011;2725;51.054;6.948;2022-07-24T00:25:02;3.9;;;3.0;;
5403;SDS011;2725;51.054;6.948;2022-07-24T00:30:02;3.9;;;3.0;;
5403;SDS011;2725;51.054;6.948;2022-07-24T00:35:01;3.8;;;3.0;;
5403;SDS011;2725;51.054;6.948;2022-07-24T00:40:02;3.8;;;3.0;;
5403;SDS011;2725;51.054;6.948;2022-07-24T00:45:01;3.3;;;2.7;;
5403;SDS011;2725;51.054;6.948;2022-07-24T00:50:01;3.3;;;2.7;;
5403;SDS011;2725;51.054;6.948;2022-07-24T00:55:02;3.4;;;3.1;;
5403;SDS011;2725;51.054;6.948;2022-07-24T01:00:03;3.4;;;3.1;;
5403;SDS011;2725;51.054;6.948;2022-07-24T01:05:02;3.1;;;2.8;;
5403;SDS011;2725;51.054;6.948;2022-07-24T01:10:02;3.1;;;2.8;;
5403;SDS011;2725;51.054;6.948;2022-07-24T01:15:01;3.2;;;2.6;;
5403;SDS011;2725;51.054;6.948;2022-07-24T01:20:02;3.2;;;2.6;;
5403;SDS011;2725;51.054;6.948;2022-07-24T01:25:02;3.1;;;2.8;;
5403;SDS011;2725;51.054;6.948;2022-07-24T01:30:02;3.1;;;2.8;;
5403;SDS011;2725;51.054;6.948;2022-07-24T01:35:02;3.7;;;3.0;;
5403;SDS011;2725;51.054;6.948;2022-07-24T01:40:02;3.7;;;3.0;;
5403;SDS011;2725;51.054;6.948;2022-07-24T01:45:01;3.7;;;3.0;;
5403;SDS011;2725;51.054;6.948;2022-07-24T01:50:01;3.7;;;3.0;;
5403;SDS011;2725;51.054;6.948;2022-07-24T01:55:02;3.1;;;2.9;;
5403;SDS011;2725;51.054;6.948;2022-07-24T02:00:02;3.1;;;2.9;;
5403;SDS011;2725;51.054;6.948;2022-07-24T02:05:01;3.2;;;2.9;;
5403;SDS011;2725;51.054;6.948;2022-07-24T02:10:01;3.2;;;2.9;;
5403;SDS011;2725;51.054;6.948;2022-07-24T02:15:01;3.2;;;2.9;;
5403;SDS011;2725;51.054;6.948;2022-07-24T02:20:02;3.2;;;2.9;;
5403;SDS011;2725;51.054;6.948;2022-07-24T02:25:02;3.1;;;2.8;;
5403;SDS011;2725;51.054;6.948;2022-07-24T02:30:02;3.1;;;2.8;;
5403;SDS011;2725;51.054;6.948;2022-07-24T02:35:01;3.1;;;2.8;;
5403;SDS011;2725;51.054;6.948;2022-07-24T02:40:02;3.1;;;2.8;;
5403;SDS011;2725;51.054;6.948;2022-07-24T02:45:02;2.8;;;2.6;;
5403;SDS011;2725;51.054;6.948;2022-07-24T02:50:01;2.8;;;2.6;;
5403;SDS011;2725;51.054;6.948;2022-07-24T02:55:02;3.0;;;2.8;;
5403;SDS011;2725;51.054;6.948;2022-07-24T03:00:04;3.0;;;2.8;;
5403;SDS011;2725;51.054;6.948;2022-07-24T03:05:02;3.0;;;2.7;;
5403;SDS011;2725;51.054;6.948;2022-07-24T03:10:01;3.0;;;2.7;;
5403;SDS011;2725;51.054;6.948;2022-07-24T03:15:02;2.9;;;2.6;;
5403;SDS011;2725;51.054;6.948;2022-07-24T03:20:02;2.9;;;2.6;;
5403;SDS011;2725;51.054;6.948;2022-07-24T03:25:01;2.9;;;2.6;;
5403;SDS011;2725;51.054;6.948;2022-07-24T03:30:02;2.9;;;2.6;;
5403;SDS011;2725;51.054;6.948;2022-07-24T03:35:02;2.7;;;2.5;;
5403;SDS011;2725;51.054;6.948;2022-07-24T03:40:01;2.7;;;2.5;;
5403;SDS011;2725;51.054;6.948;2022-07-24T03:45:01;2.5;;;2.3;;
5403;SDS011;2725;51.054;6.948;2022-07-24T03:50:01;2.5;;;2.3;;
5403;SDS011;2725;51.054;6.948;2022-07-24T03:55:02;2.5;;;2.3;;
5403;SDS011;2725;51.054;6.948;2022-07-24T04:00:02;2.5;;;2.3;;
5403;SDS011;2725;51.054;6.948;2022-07-24T04:05:01;2.7;;;2.5;;
5403;SDS011;2725;51.054;6.948;2022-07-24T04:10:02;2.7;;;2.5;;
5403;SDS011;2725;51.054;6.948;2022-07-24T04:15:02;2.7;;;2.5;;
5403;SDS011;2725;51.054;6.948;2022-07-24T04:20:01;2.7;;;2.5;;
5403;SDS011;2725;51.054;6.948;2022-07-24T04:25:02;2.9;;;2.6;;
5403;SDS011;2725;51.054;6.948;2022-07-24T04:30:02;2.9;;;2.6;;
5403;SDS011;2725;51.054;6.948;2022-07-24T04:35:02;2.8;;;2.5;;
5403;SDS011;2725;51.054;6.948;2022-07-24T04:40:02;2.8;;;2.5;;
5403;SDS011;2725;51.054;6.948;2022-07-24T04:45:01;2.8;;;2.6;;
5403;SDS011;2725;51.054;6.948;2022-07-24T04:50:02;2.8;;;2.6;;
5403;SDS011;2725;51.054;6.948;2022-07-24T04:55:01;2.6;;;2.4;;
5403;SDS011;2725;51.054;6.948;2022-07-24T05:00:03;2.6;;;2.4;;
5403;SDS011;2725;51.054;6.948;2022-07-24T05:05:01;2.6;;;2.4;;
5403;SDS011;2725;51.054;6.948;2022-07-24T05:10:02;2.6;;;2.4;;
5403;SDS011;2725;51.054;6.948;2022-07-24T05:15:01;2.6;;;2.4;;
5403;SDS011;2725;51.054;6.948;2022-07-24T05:20:02;2.6;;;2.4;;
5403;SDS011;2725;51.054;6.948;2022-07-24T05:25:02;2.6;;;2.4;;
5403;SDS011;2725;51.054;6.948;2022-07-24T05:30:02;2.6;;;2.4;;
5403;SDS011;2725;51.054;6.948;2022-07-24T05:35:02;2.6;;;2.4;;
5403;SDS011;2725;51.054;6.948;2022-07-24T05:40:02;2.6;;;2.4;;
5403;SDS011;2725;51.054;6.948;2022-07-24T05:45:01;3.3;;;2.9;;
5403;SDS011;2725;51.054;6.948;2022-07-24T05:50:02;3.3;;;2.9;;
5403;SDS011;2725;51.054;6.948;2022-07-24T05:55:02;3.1;;;2.8;;
5403;SDS011;2725;51.054;6.948;2022-07-24T06:00:02;3.1;;;2.8;;
5403;SDS011;2725;51.054;6.948;2022-07-24T06:05:01;3.0;;;2.7;;
5403;SDS011;2725;51.054;6.948;2022-07-24T06:10:01;3.0;;;2.7;;
5403;SDS011;2725;51.054;6.948;2022-07-24T06:15:02;3.6;;;3.0;;
5403;SDS011;2725;51.054;6.948;2022-07-24T06:20:01;3.6;;;3.0;;
5403;SDS011;2725;51.054;6.948;2022-07-24T06:25:01;4.3;;;3.5;;
5403;SDS011;2725;51.054;6.948;2022-07-24T06:30:02;4.3;;;3.5;;
5403;SDS011;2725;51.054;6.948;2022-07-24T06:35:01;4.2;;;3.2;;
5403;SDS011;2725;51.054;6.948;2022-07-24T06:40:02;4.2;;;3.2;;
5403;SDS011;2725;51.054;6.948;2022-07-24T06:45:02;3.5;;;3.2;;
5403;SDS011;2725;51.054;6.948;2022-07-24T06:50:01;3.5;;;3.2;;
5403;SDS011;2725;51.054;6.948;2022-07-24T06:55:02;3.2;;;2.9;;
5403;SDS011;2725;51.054;6.948;2022-07-24T07:00:02;3.2;;;2.9;;
5403;SDS011;2725;51.054;6.948;2022-07-24T07:05:02;4.2;;;3.0;;
5403;SDS011;2725;51.054;6.948;2022-07-24T07:10:01;4.2;;;3.0;;
5403;SDS011;2725;51.054;6.948;2022-07-24T07:15:02;4.2;;;3.0;;
5403;SDS011;2725;51.054;6.948;2022-07-24T07:20:01;4.2;;;3.0;;
5403;SDS011;2725;51.054;6.948;2022-07-24T07:25:01;3.0;;;2.7;;
5403;SDS011;2725;51.054;6.948;2022-07-24T07:30:03;3.0;;;2.7;;
5403;SDS011;2725;51.054;6.948;2022-07-24T07:35:01;3.1;;;2.5;;
5403;SDS011;2725;51.054;6.948;2022-07-24T07:40:03;3.1;;;2.5;;
5403;SDS011;2725;51.054;6.948;2022-07-24T07:45:02;3.2;;;2.5;;
5403;SDS011;2725;51.054;6.948;2022-07-24T07:50:02;3.2;;;2.5;;
5403;SDS011;2725;51.054;6.948;2022-07-24T07:55:02;4.4;;;2.8;;
5403;SDS011;2725;51.054;6.948;2022-07-24T08:00:01;4.4;;;2.8;;
5403;SDS011;2725;51.054;6.948;2022-07-24T08:05:01;3.1;;;2.8;;
5403;SDS011;2725;51.054;6.948;2022-07-24T08:10:01;3.1;;;2.8;;
5403;SDS011;2725;51.054;6.948;2022-07-24T08:15:02;2.8;;;2.6;;
5403;SDS011;2725;51.054;6.948;2022-07-24T08:20:02;2.8;;;2.6;;
5403;SDS011;2725;51.054;6.948;2022-07-24T08:25:01;2.9;;;2.7;;
5403;SDS011;2725;51.054;6.948;2022-07-24T08:30:02;2.9;;;2.7;;
5403;SDS011;2725;51.054;6.948;2022-07-24T08:35:02;3.0;;;2.8;;
5403;SDS011;2725;51.054;6.948;2022-07-24T08:40:01;3.0;;;2.8;;
5403;SDS011;2725;51.054;6.948;2022-07-24T08:45:02;3.9;;;2.9;;
5403;SDS011;2725;51.054;6.948;2022-07-24T08:50:01;3.9;;;2.9;;
5403;SDS011;2725;51.054;6.948;2022-07-24T08:55:02;3.5;;;3.2;;
5403;SDS011;2725;51.054;6.948;2022-07-24T09:00:01;3.5;;;3.2;;
5403;SDS011;2725;51.054;6.948;2022-07-24T09:05:01;3.5;;;3.2;;
5403;SDS011;2725;51.054;6.948;2022-07-24T09:10:04;3.5;;;3.2;;
5403;SDS011;2725;51.054;6.948;2022-07-24T09:15:02;3.7;;;3.3;;
5403;SDS011;2725;51.054;6.948;2022-07-24T09:20:01;3.7;;;3.3;;
5403;SDS011;2725;51.054;6.948;2022-07-24T09:25:05;3.3;;;3.0;;
5403;SDS011;2725;51.054;6.948;2022-07-24T09:30:02;3.3;;;3.0;;
5403;SDS011;2725;51.054;6.948;2022-07-24T09:35:01;4.3;;;3.2;;
5403;SDS011;2725;51.054;6.948;2022-07-24T09:40:08;4.3;;;3.2;;
5403;SDS011;2725;51.054;6.948;2022-07-24T09:45:01;4.3;;;3.3;;
5403;SDS011;2725;51.054;6.948;2022-07-24T09:50:11;4.3;;;3.3;;
5403;SDS011;2725;51.054;6.948;2022-07-24T09:55:01;4.1;;;3.7;;
5403;SDS011;2725;51.054;6.948;2022-07-24T10:00:03;4.1;;;3.7;;
5403;SDS011;2725;51.054;6.948;2022-07-24T10:05:02;4.0;;;3.7;;
5403;SDS011;2725;51.054;6.948;2022-07-24T10:10:01;4.0;;;3.7;;
5403;SDS011;2725;51.054;6.948;2022-07-24T10:15:02;3.6;;;3.2;;
5403;SDS011;2725;51.054;6.948;2022-07-24T10:20:02;3.6;;;3.2;;
5403;SDS011;2725;51.054;6.948;2022-07-24T10:25:08;3.6;;;3.3;;
5403;SDS011;2725;51.054;6.948;2022-07-24T10:30:04;3.6;;;3.3;;
5403;SDS011;2725;51.054;6.948;2022-07-24T10:35:04;4.0;;;3.2;;
5403;SDS011;2725;51.054;6.948;2022-07-24T10:40:21;4.0;;;3.2;;
5403;SDS011;2725;51.054;6.948;2022-07-24T10:45:17;10.2;;;3.9;;
5403;SDS011;2725;51.054;6.948;2022-07-24T10:50:01;10.2;;;3.9;;
5403;SDS011;2725;51.054;6.948;2022-07-24T10:55:34;3.9;;;3.5;;
5403;SDS011;2725;51.054;6.948;2022-07-24T11:00:17;3.9;;;3.5;;
5403;SDS011;2725;51.054;6.948;2022-07-24T11:05:35;3.9;;;3.5;;
5403;SDS011;2725;51.054;6.948;2022-07-24T11:10:03;3.9;;;3.5;;
5403;SDS011;2725;51.054;6.948;2022-07-24T11:15:02;3.7;;;3.4;;
5403;SDS011;2725;51.054;6.948;2022-07-24T11:20:02;3.7;;;3.4;;
5403;SDS011;2725;51.054;6.948;2022-07-24T11:25:06;3.7;;;3.4;;
5403;SDS011;2725;51.054;6.948;2022-07-24T11:30:01;3.7;;;3.4;;
5403;SDS011;2725;51.054;6.948;2022-07-24T11:35:01;3.7;;;3.4;;
5403;SDS011;2725;51.054;6.948;2022-07-24T11:40:01;3.7;;;3.4;;
5403;SDS011;2725;51.054;6.948;2022-07-24T11:45:01;4.2;;;3.2;;
5403;SDS011;2725;51.054;6.948;2022-07-24T11:50:03;4.2;;;3.2;;
5403;SDS011;2725;51.054;6.948;2022-07-24T11:55:19;4.2;;;3.3;;
5403;SDS011;2725;51.054;6.948;2022-07-24T12:00:02;4.2;;;3.3;;
5403;SDS011;2725;51.054;6.948;2022-07-24T12:05:02;3.5;;;3.2;;
5403;SDS011;2725;51.054;6.948;2022-07-24T12:10:02;3.5;;;3.2;;
5403;SDS011;2725;51.054;6.948;2022-07-24T12:15:04;2.9;;;2.7;;
5403;SDS011;2725;51.054;6.948;2022-07-24T12:20:01;2.9;;;2.7;;
5403;SDS011;2725;51.054;6.948;2022-07-24T12:25:01;2.9;;;2.7;;
5403;SDS011;2725;51.054;6.948;2022-07-24T12:30:02;2.9;;;2.7;;
5403;SDS011;2725;51.054;6.948;2022-07-24T12:35:10;3.4;;;3.1;;
5403;SDS011;2725;51.054;6.948;2022-07-24T12:40:01;3.4;;;3.1;;
5403;SDS011;2725;51.054;6.948;2022-07-24T12:45:05;3.3;;;3.0;;
5403;SDS011;2725;51.054;6.948;2022-07-24T12:50:11;3.3;;;3.0;;
5403;SDS011;2725;51.054;6.948;2022-07-24T12:55:04;3.3;;;3.0;;
5403;SDS011;2725;51.054;6.948;2022-07-24T13:00:02;3.3;;;3.0;;
5403;SDS011;2725;51.054;6.948;2022-07-24T13:05:01;3.6;;;3.2;;
5403;SDS011;2725;51.054;6.948;2022-07-24T13:10:01;3.6;;;3.2;;
5403;SDS011;2725;51.054;6.948;2022-07-24T13:15:01;3.5;;;3.2;;
5403;SDS011;2725;51.054;6.948;2022-07-24T13:20:01;3.5;;;3.2;;
5403;SDS011;2725;51.054;6.948;2022-07-24T13:25:01;3.5;;;2.9;;
5403;SDS011;2725;51.054;6.948;2022-07-24T13:30:03;3.5;;;2.9;;
5403;SDS011;2725;51.054;6.948;2022-07-24T13:35:01;3.3;;;2.8;;
5403;SDS011;2725;51.054;6.948;2022-07-24T13:40:02;3.3;;;2.8;;
5403;SDS011;2725;51.054;6.948;2022-07-24T13:45:01;3.1;;;2.8;;
5403;SDS011;2725;51.054;6.948;2022-07-24T13:50:02;3.1;;;2.8;;
5403;SDS011;2725;51.054;6.948;2022-07-24T13:55:01;3.1;;;2.8;;
5403;SDS011;2725;51.054;6.948;2022-07-24T14:00:01;3.1;;;2.8;;
5403;SDS011;2725;51.054;6.948;2022-07-24T14:05:02;3.3;;;3.0;;
5403;SDS011;2725;51.054;6.948;2022-07-24T14:10:01;3.3;;;3.0;;
5403;SDS011;2725;51.054;6.948;2022-07-24T14:15:01;3.3;;;3.0;;
5403;SDS011;2725;51.054;6.948;2022-07-24T14:20:02;3.3;;;3.0;;
5403;SDS011;2725;51.054;6.948;2022-07-24T14:25:02;3.2;;;2.9;;
5403;SDS011;2725;51.054;6.948;2022-07-24T14:30:01;3.2;;;2.9;;
5403;SDS011;2725;51.054;6.948;2022-07-24T14:35:01;3.0;;;2.8;;
5403;SDS011;2725;51.054;6.948;2022-07-24T14:40:03;3.0;;;2.8;;
5403;SDS011;2725;51.054;6.948;2022-07-24T14:45:02;3.3;;;2.8;;
5403;SDS011;2725;51.054;6.948;2022-07-24T14:50:01;3.3;;;2.8;;
5403;SDS011;2725;51.054;6.948;2022-07-24T14:55:02;3.3;;;2.8;;
5403;SDS011;2725;51.054;6.948;2022-07-24T15:00:03;3.3;;;2.8;;
5403;SDS011;2725;51.054;6.948;2022-07-24T15:05:01;5.2;;;3.3;;
5403;SDS011;2725;51.054;6.948;2022-07-24T15:10:01;5.2;;;3.3;;
5403;SDS011;2725;51.054;6.948;2022-07-24T15:15:02;3.4;;;3.1;;
5403;SDS011;2725;51.054;6.948;2022-07-24T15:20:01;3.4;;;3.1;;
5403;SDS011;2725;51.054;6.948;2022-07-24T15:25:01;3.3;;;3.0;;
5403;SDS011;2725;51.054;6.948;2022-07-24T15:30:02;3.3;;;3.0;;
5403;SDS011;2725;51.054;6.948;2022-07-24T15:35:02;3.3;;;2.8;;
5403;SDS011;2725;51.054;6.948;2022-07-24T15:40:02;3.3;;;2.8;;
5403;SDS011;2725;51.054;6.948;2022-07-24T15:45:01;2.8;;;2.6;;
5403;SDS011;2725;51.054;6.948;2022-07-24T15:50:01;2.8;;;2.6;;
5403;SDS011;2725;51.054;6.948;2022-07-24T15:55:02;2.8;;;2.6;;
5403;SDS011;2725;51.054;6.948;2022-07-24T16:00:01;2.8;;;2.6;;
5403;SDS011;2725;51.054;6.948;2022-07-24T16:05:01;2.9;;;2.7;;
5403;SDS011;2725;51.054;6.948;2022-07-24T16:10:01;2.9;;;2.7;;
5403;SDS011;2725;51.054;6.948;2022-07-24T16:15:02;2.9;;;2.7;;
5403;SDS011;2725;51.054;6.948;2022-07-24T16:20:02;2.9;;;2.7;;
5403;SDS011;2725;51.054;6.948;2022-07-24T16:25:03;4.3;;;3.0;;
5403;SDS011;2725;51.054;6.948;2022-07-24T16:30:02;4.3;;;3.0;;
5403;SDS011;2725;51.054;6.948;2022-07-24T16:35:01;4.3;;;2.9;;
5403;SDS011;2725;51.054;6.948;2022-07-24T16:40:01;4.3;;;2.9;;
5403;SDS011;2725;51.054;6.948;2022-07-24T16:45:01;3.5;;;3.2;;
5403;SDS011;2725;51.054;6.948;2022-07-24T16:50:02;3.5;;;3.2;;
5403;SDS011;2725;51.054;6.948;2022-07-24T16:55:01;4.0;;;3.6;;
5403;SDS011;2725;51.054;6.948;2022-07-24T17:00:01;4.0;;;3.6;;
5403;SDS011;2725;51.054;6.948;2022-07-24T17:05:01;4.3;;;3.3;;
5403;SDS011;2725;51.054;6.948;2022-07-24T17:10:01;4.3;;;3.3;;
5403;SDS011;2725;51.054;6.948;2022-07-24T17:15:01;4.2;;;3.2;;
5403;SDS011;2725;51.054;6.948;2022-07-24T17:20:02;4.2;;;3.2;;
5403;SDS011;2725;51.054;6.948;2022-07-24T17:25:02;3.3;;;3.0;;
5403;SDS011;2725;51.054;6.948;2022-07-24T17:30:03;3.3;;;3.0;;
5403;SDS011;2725;51.054;6.948;2022-07-24T17:35:02;2.9;;;2.7;;
5403;SDS011;2725;51.054;6.948;2022-07-24T17:40:02;2.9;;;2.7;;
5403;SDS011;2725;51.054;6.948;2022-07-24T17:45:01;2.9;;;2.6;;
5403;SDS011;2725;51.054;6.948;2022-07-24T17:50:02;2.9;;;2.6;;
5403;SDS011;2725;51.054;6.948;2022-07-24T17:55:02;2.9;;;2.6;;
5403;SDS011;2725;51.054;6.948;2022-07-24T18:00:03;2.9;;;2.6;;
5403;SDS011;2725;51.054;6.948;2022-07-24T18:05:01;2.7;;;2.5;;
5403;SDS011;2725;51.054;6.948;2022-07-24T18:10:02;2.7;;;2.5;;
5403;SDS011;2725;51.054;6.948;2022-07-24T18:15:02;2.7;;;2.5;;
5403;SDS011;2725;51.054;6.948;2022-07-24T18:20:01;2.7;;;2.5;;
5403;SDS011;2725;51.054;6.948;2022-07-24T18:25:01;3.0;;;2.7;;
5403;SDS011;2725;51.054;6.948;2022-07-24T18:30:02;3.0;;;2.7;;
5403;SDS011;2725;51.054;6.948;2022-07-24T18:35:01;2.9;;;2.7;;
5403;SDS011;2725;51.054;6.948;2022-07-24T18:40:01;2.9;;;2.7;;
5403;SDS011;2725;51.054;6.948;2022-07-24T18:45:01;2.7;;;2.5;;
5403;SDS011;2725;51.054;6.948;2022-07-24T18:50:02;2.7;;;2.5;;
5403;SDS011;2725;51.054;6.948;2022-07-24T18:55:02;3.1;;;2.9;;
5403;SDS011;2725;51.054;6.948;2022-07-24T19:00:02;3.1;;;2.9;;
5403;SDS011;2725;51.054;6.948;2022-07-24T19:05:01;3.2;;;2.9;;
5403;SDS011;2725;51.054;6.948;2022-07-24T19:10:02;3.2;;;2.9;;
5403;SDS011;2725;51.054;6.948;2022-07-24T19:15:02;3.2;;;2.9;;
5403;SDS011;2725;51.054;6.948;2022-07-24T19:20:02;3.2;;;2.9;;
5403;SDS011;2725;51.054;6.948;2022-07-24T19:25:01;2.8;;;2.6;;
5403;SDS011;2725;51.054;6.948;2022-07-24T19:30:04;2.8;;;2.6;;
5403;SDS011;2725;51.054;6.948;2022-07-24T19:35:01;2.9;;;2.7;;
5403;SDS011;2725;51.054;6.948;2022-07-24T19:40:02;2.9;;;2.7;;
5403;SDS011;2725;51.054;6.948;2022-07-24T19:45:02;3.5;;;3.2;;
5403;SDS011;2725;51.054;6.948;2022-07-24T19:50:01;3.5;;;3.2;;
5403;SDS011;2725;51.054;6.948;2022-07-24T19:55:01;3.5;;;3.2;;
5403;SDS011;2725;51.054;6.948;2022-07-24T20:00:01;3.5;;;3.2;;
5403;SDS011;2725;51.054;6.948;2022-07-24T20:05:01;3.4;;;3.1;;
5403;SDS011;2725;51.054;6.948;2022-07-24T20:10:02;3.4;;;3.1;;
5403;SDS011;2725;51.054;6.948;2022-07-24T20:15:02;3.4;;;3.1;;
5403;SDS011;2725;51.054;6.948;2022-07-24T20:20:01;3.4;;;3.1;;
5403;SDS011;2725;51.054;6.948;2022-07-24T20:25:02;3.4;;;3.1;;
5403;SDS011;2725;51.054;6.948;2022-07-24T20:30:02;3.4;;;3.1;;
5403;SDS011;2725;51.054;6.948;2022-07-24T20:35:01;3.9;;;3.6;;
5403;SDS011;2725;51.054;6.948;2022-07-24T20:40:02;3.9;;;3.6;;
5403;SDS011;2725;51.054;6.948;2022-07-24T20:45:03;3.8;;;3.5;;
5403;SDS011;2725;51.054;6.948;2022-07-24T20:50:01;3.8;;;3.5;;
5403;SDS011;2725;51.054;6.948;2022-07-24T20:55:02;4.0;;;3.6;;
5403;SDS011;2725;51.054;6.948;2022-07-24T21:00:02;4.0;;;3.6;;
5403;SDS011;2725;51.054;6.948;2022-07-24T21:05:01;3.9;;;3.6;;
5403;SDS011;2725;51.054;6.948;2022-07-24T21:10:02;3.9;;;3.6;;
5403;SDS011;2725;51.054;6.948;2022-07-24T21:15:01;4.0;;;3.7;;
5403;SDS011;2725;51.054;6.948;2022-07-24T21:20:01;4.0;;;3.7;;
5403;SDS011;2725;51.054;6.948;2022-07-24T21:25:01;4.0;;;3.7;;
5403;SDS011;2725;51.054;6.948;2022-07-24T21:30:02;4.0;;;3.7;;
5403;SDS011;2725;51.054;6.948;2022-07-24T21:35:02;4.5;;;4.1;;
5403;SDS011;2725;51.054;6.948;2022-07-24T21:40:02;4.5;;;4.1;;
5403;SDS011;2725;51.054;6.948;2022-07-24T21:45:01;4.4;;;4.0;;
5403;SDS011;2725;51.054;6.948;2022-07-24T21:50:02;4.4;;;4.0;;
5403;SDS011;2725;51.054;6.948;2022-07-24T21:55:02;4.3;;;3.9;;
5403;SDS011;2725;51.054;6.948;2022-07-24T22:00:02;4.3;;;3.9;;
5403;SDS011;2725;51.054;6.948;2022-07-24T22:05:02;4.1;;;3.8;;
5403;SDS011;2725;51.054;6.948;2022-07-24T22:10:04;4.1;;;3.8;;
5403;SDS011;2725;51.054;6.948;2022-07-24T22:15:01;4.1;;;3.8;;
5403;SDS011;2725;51.054;6.948;2022-07-24T22:20:01;4.1;;;3.8;;
5403;SDS011;2725;51.054;6.948;2022-07-24T22:25:02;3.9;;;3.6;;
5403;SDS011;2725;51.054;6.948;2022-07-24T22:30:02;3.9;;;3.6;;
5403;SDS011;2725;51.054;6.948;2022-07-24T22:35:02;4.1;;;3.7;;
5403;SDS011;2725;51.054;6.948;2022-07-24T22:40:04;4.1;;;3.7;;
5403;SDS011;2725;51.054;6.948;2022-07-24T22:45:01;4.0;;;3.6;;
5403;SDS011;2725;51.054;6.948;2022-07-24T22:50:01;4.0;;;3.6;;
5403;SDS011;2725;51.054;6.948;2022-07-24T22:55:01;3.8;;;3.5;;
5403;SDS011;2725;51.054;6.948;2022-07-24T23:00:03;3.8;;;3.5;;
5403;SDS011;2725;51.054;6.948;2022-07-24T23:05:01;4.3;;;3.9;;
5403;SDS011;2725;51.054;6.948;2022-07-24T23:10:01;4.3;;;3.9;;
5403;SDS011;2725;51.054;6.948;2022-07-24T23:15:01;4.3;;;3.7;;
5403;SDS011;2725;51.054;6.948;2022-07-24T23:20:01;4.3;;;3.7;;
5403;SDS011;2725;51.054;6.948;2022-07-24T23:25:01;4.8;;;4.1;;
5403;SDS011;2725;51.054;6.948;2022-07-24T23:30:02;4.8;;;4.1;;
5403;SDS011;2725;51.054;6.948;2022-07-24T23:35:01;4.0;;;3.6;;
5403;SDS011;2725;51.054;6.948;2022-07-24T23:40:01;4.0;;;3.6;;
5403;SDS011;2725;51.054;6.948;2022-07-24T23:45:01;4.2;;;3.6;;
5403;SDS011;2725;51.054;6.948;2022-07-24T23:50:01;4.2;;;3.6;;
5403;SDS011;2725;51.054;6.948;2022-07-24T23:55:01;4.3;;;3.9;;
